sensor_id;sensor_type;location;lat;lon;timestamp;temperature;humidity
913;DHT22;443;51.448;7.028;2023-05-20T00:01:38;16.30;72.40
913;DHT22;443;51.448;7.028;2023-05-20T00:04:05;16.30;72.80
913;DHT22;443;51.448;7.028;2023-05-20T00:06:33;16.20;73.00
913;DHT22;443;51.448;7.028;2023-05-20T00:09:00;16.20;73.10
913;DHT22;443;51.448;7.028;2023-05-20T00:11:27;16.20;72.90
913;DHT22;443;51.448;7.028;2023-05-20T00:13:54;16.20;72.20
913;DHT22;443;51.448;7.028;2023-05-20T00:16:21;16.20;71.20
913;DHT22;443;51.448;7.028;2023-05-20T00:18:48;16.20;73.20
913;DHT22;443;51.448;7.028;2023-05-20T00:21:15;16.20;72.80
913;DHT22;443;51.448;7.028;2023-05-20T00:23:43;16.20;72.80
913;DHT22;443;51.448;7.028;2023-05-20T00:26:09;16.20;71.60
913;DHT22;443;51.448;7.028;2023-05-20T00:28:36;16.20;71.50
913;DHT22;443;51.448;7.028;2023-05-20T00:31:03;16.20;72.20
913;DHT22;443;51.448;7.028;2023-05-20T00:33:30;16.20;73.30
913;DHT22;443;51.448;7.028;2023-05-20T00:35:57;16.20;72.30
913;DHT22;443;51.448;7.028;2023-05-20T00:38:23;16.20;72.90
913;DHT22;443;51.448;7.028;2023-05-20T00:40:51;16.20;72.10
913;DHT22;443;51.448;7.028;2023-05-20T00:43:18;16.20;71.50
913;DHT22;443;51.448;7.028;2023-05-20T00:45:47;16.20;71.40
913;DHT22;443;51.448;7.028;2023-05-20T00:48:14;16.20;70.60
913;DHT22;443;51.448;7.028;2023-05-20T00:50:40;16.20;72.50
913;DHT22;443;51.448;7.028;2023-05-20T00:53:08;16.20;71.70
913;DHT22;443;51.448;7.028;2023-05-20T00:55:35;16.10;72.00
913;DHT22;443;51.448;7.028;2023-05-20T00:58:03;16.20;72.70
913;DHT22;443;51.448;7.028;2023-05-20T01:00:30;16.10;70.50
913;DHT22;443;51.448;7.028;2023-05-20T01:02:57;16.10;71.90
913;DHT22;443;51.448;7.028;2023-05-20T01:05:24;16.10;70.60
913;DHT22;443;51.448;7.028;2023-05-20T01:07:51;16.10;69.50
913;DHT22;443;51.448;7.028;2023-05-20T01:10:18;16.10;72.20
913;DHT22;443;51.448;7.028;2023-05-20T01:12:48;16.10;72.00
913;DHT22;443;51.448;7.028;2023-05-20T01:15:18;16.10;71.60
913;DHT22;443;51.448;7.028;2023-05-20T01:17:50;16.10;72.20
913;DHT22;443;51.448;7.028;2023-05-20T01:20:17;16.10;72.90
913;DHT22;443;51.448;7.028;2023-05-20T01:22:52;16.10;70.50
913;DHT22;443;51.448;7.028;2023-05-20T01:25:20;16.10;72.20
913;DHT22;443;51.448;7.028;2023-05-20T01:27:47;16.10;71.60
913;DHT22;443;51.448;7.028;2023-05-20T01:30:14;16.10;72.90
913;DHT22;443;51.448;7.028;2023-05-20T01:32:43;16.10;70.20
913;DHT22;443;51.448;7.028;2023-05-20T01:35:13;16.10;72.30
913;DHT22;443;51.448;7.028;2023-05-20T01:37:41;16.10;72.60
913;DHT22;443;51.448;7.028;2023-05-20T01:40:11;16.10;72.30
913;DHT22;443;51.448;7.028;2023-05-20T01:42:40;16.10;72.00
913;DHT22;443;51.448;7.028;2023-05-20T01:45:08;16.10;71.90
913;DHT22;443;51.448;7.028;2023-05-20T01:47:35;16.10;72.90
913;DHT22;443;51.448;7.028;2023-05-20T01:50:02;16.10;73.20
913;DHT22;443;51.448;7.028;2023-05-20T01:52:29;16.00;72.50
913;DHT22;443;51.448;7.028;2023-05-20T01:54:56;16.00;72.90
913;DHT22;443;51.448;7.028;2023-05-20T01:57:24;16.00;72.50
913;DHT22;443;51.448;7.028;2023-05-20T01:59:51;16.00;72.70
913;DHT22;443;51.448;7.028;2023-05-20T02:02:17;16.00;69.70
913;DHT22;443;51.448;7.028;2023-05-20T02:04:45;16.00;67.70
913;DHT22;443;51.448;7.028;2023-05-20T02:07:13;16.00;71.30
913;DHT22;443;51.448;7.028;2023-05-20T02:09:40;16.00;69.40
913;DHT22;443;51.448;7.028;2023-05-20T02:12:07;16.00;71.10
913;DHT22;443;51.448;7.028;2023-05-20T02:14:42;16.00;70.00
913;DHT22;443;51.448;7.028;2023-05-20T02:17:08;16.00;72.10
913;DHT22;443;51.448;7.028;2023-05-20T02:19:35;16.00;70.40
913;DHT22;443;51.448;7.028;2023-05-20T02:22:02;16.00;70.90
913;DHT22;443;51.448;7.028;2023-05-20T02:24:29;16.00;70.70
913;DHT22;443;51.448;7.028;2023-05-20T02:26:56;16.00;71.80
913;DHT22;443;51.448;7.028;2023-05-20T02:29:23;16.00;71.80
913;DHT22;443;51.448;7.028;2023-05-20T02:31:51;16.00;71.70
913;DHT22;443;51.448;7.028;2023-05-20T02:34:19;16.00;71.20
913;DHT22;443;51.448;7.028;2023-05-20T02:36:46;16.00;70.90
913;DHT22;443;51.448;7.028;2023-05-20T02:39:13;15.90;71.40
913;DHT22;443;51.448;7.028;2023-05-20T02:41:40;16.00;71.60
913;DHT22;443;51.448;7.028;2023-05-20T02:44:06;15.90;68.90
913;DHT22;443;51.448;7.028;2023-05-20T02:46:33;15.90;70.30
913;DHT22;443;51.448;7.028;2023-05-20T02:49:01;15.90;71.10
913;DHT22;443;51.448;7.028;2023-05-20T02:51:28;15.90;69.10
913;DHT22;443;51.448;7.028;2023-05-20T02:53:56;15.90;69.70
913;DHT22;443;51.448;7.028;2023-05-20T02:56:23;15.90;69.30
913;DHT22;443;51.448;7.028;2023-05-20T02:58:49;15.90;71.70
913;DHT22;443;51.448;7.028;2023-05-20T03:01:16;15.90;70.10
913;DHT22;443;51.448;7.028;2023-05-20T03:03:43;15.80;72.00
913;DHT22;443;51.448;7.028;2023-05-20T03:06:11;15.80;68.20
913;DHT22;443;51.448;7.028;2023-05-20T03:08:38;15.80;70.70
913;DHT22;443;51.448;7.028;2023-05-20T03:11:07;15.80;71.10
913;DHT22;443;51.448;7.028;2023-05-20T03:13:33;15.80;69.20
913;DHT22;443;51.448;7.028;2023-05-20T03:16:00;15.80;69.50
913;DHT22;443;51.448;7.028;2023-05-20T03:18:27;15.80;71.60
913;DHT22;443;51.448;7.028;2023-05-20T03:20:54;15.80;70.20
913;DHT22;443;51.448;7.028;2023-05-20T03:23:22;15.80;71.10
913;DHT22;443;51.448;7.028;2023-05-20T03:25:48;15.80;71.40
913;DHT22;443;51.448;7.028;2023-05-20T03:28:16;15.80;70.20
913;DHT22;443;51.448;7.028;2023-05-20T03:30:42;15.80;70.50
913;DHT22;443;51.448;7.028;2023-05-20T03:33:09;15.80;70.40
913;DHT22;443;51.448;7.028;2023-05-20T03:35:36;15.80;71.30
913;DHT22;443;51.448;7.028;2023-05-20T03:38:03;15.80;69.70
913;DHT22;443;51.448;7.028;2023-05-20T03:40:31;15.80;70.20
913;DHT22;443;51.448;7.028;2023-05-20T03:42:58;15.80;70.40
913;DHT22;443;51.448;7.028;2023-05-20T03:45:24;15.80;70.20
913;DHT22;443;51.448;7.028;2023-05-20T03:47:51;15.70;70.50
913;DHT22;443;51.448;7.028;2023-05-20T03:50:18;15.80;72.60
913;DHT22;443;51.448;7.028;2023-05-20T03:52:45;15.70;70.50
913;DHT22;443;51.448;7.028;2023-05-20T03:55:11;15.80;71.40
913;DHT22;443;51.448;7.028;2023-05-20T03:57:40;15.70;69.30
913;DHT22;443;51.448;7.028;2023-05-20T04:00:07;15.70;72.00
913;DHT22;443;51.448;7.028;2023-05-20T04:02:36;15.70;69.90
913;DHT22;443;51.448;7.028;2023-05-20T04:05:04;15.70;71.30
913;DHT22;443;51.448;7.028;2023-05-20T04:07:33;15.80;70.50
913;DHT22;443;51.448;7.028;2023-05-20T04:10:00;15.80;71.00
913;DHT22;443;51.448;7.028;2023-05-20T04:12:27;15.70;70.30
913;DHT22;443;51.448;7.028;2023-05-20T04:14:57;15.70;72.10
913;DHT22;443;51.448;7.028;2023-05-20T04:17:25;15.80;73.60
913;DHT22;443;51.448;7.028;2023-05-20T04:19:52;15.80;71.00
913;DHT22;443;51.448;7.028;2023-05-20T04:22:19;15.80;70.60
913;DHT22;443;51.448;7.028;2023-05-20T04:24:46;15.80;70.80
913;DHT22;443;51.448;7.028;2023-05-20T04:27:13;15.80;70.80
913;DHT22;443;51.448;7.028;2023-05-20T04:29:40;15.80;73.20
913;DHT22;443;51.448;7.028;2023-05-20T04:32:13;15.80;71.00
913;DHT22;443;51.448;7.028;2023-05-20T04:34:40;15.80;72.90
913;DHT22;443;51.448;7.028;2023-05-20T04:37:06;15.80;72.10
913;DHT22;443;51.448;7.028;2023-05-20T04:39:34;15.80;71.40
913;DHT22;443;51.448;7.028;2023-05-20T04:42:01;15.80;70.50
913;DHT22;443;51.448;7.028;2023-05-20T04:44:29;15.80;71.80
913;DHT22;443;51.448;7.028;2023-05-20T04:46:56;15.80;71.00
913;DHT22;443;51.448;7.028;2023-05-20T04:49:25;15.80;71.10
913;DHT22;443;51.448;7.028;2023-05-20T04:51:53;15.80;71.00
913;DHT22;443;51.448;7.028;2023-05-20T04:54:20;15.80;72.30
913;DHT22;443;51.448;7.028;2023-05-20T04:56:47;15.80;71.40
913;DHT22;443;51.448;7.028;2023-05-20T04:59:15;15.80;73.20
913;DHT22;443;51.448;7.028;2023-05-20T05:01:42;15.80;72.70
913;DHT22;443;51.448;7.028;2023-05-20T05:04:09;15.80;71.30
913;DHT22;443;51.448;7.028;2023-05-20T05:06:37;15.80;71.80
913;DHT22;443;51.448;7.028;2023-05-20T05:09:04;15.80;71.80
913;DHT22;443;51.448;7.028;2023-05-20T05:11:30;15.80;72.80
913;DHT22;443;51.448;7.028;2023-05-20T05:13:57;15.80;71.40
913;DHT22;443;51.448;7.028;2023-05-20T05:16:24;15.90;73.10
913;DHT22;443;51.448;7.028;2023-05-20T05:18:50;15.90;72.60
913;DHT22;443;51.448;7.028;2023-05-20T05:21:17;15.90;73.50
913;DHT22;443;51.448;7.028;2023-05-20T05:23:45;15.90;73.60
913;DHT22;443;51.448;7.028;2023-05-20T05:26:12;15.90;73.20
913;DHT22;443;51.448;7.028;2023-05-20T05:28:40;15.90;73.80
913;DHT22;443;51.448;7.028;2023-05-20T05:31:07;16.00;72.60
913;DHT22;443;51.448;7.028;2023-05-20T05:33:34;16.00;73.60
913;DHT22;443;51.448;7.028;2023-05-20T05:36:01;16.00;73.20
913;DHT22;443;51.448;7.028;2023-05-20T05:38:29;16.00;73.80
913;DHT22;443;51.448;7.028;2023-05-20T05:40:57;16.00;74.10
913;DHT22;443;51.448;7.028;2023-05-20T05:43:24;16.00;73.80
913;DHT22;443;51.448;7.028;2023-05-20T05:45:51;16.00;73.60
913;DHT22;443;51.448;7.028;2023-05-20T05:48:17;16.10;74.00
913;DHT22;443;51.448;7.028;2023-05-20T05:50:44;16.10;73.80
913;DHT22;443;51.448;7.028;2023-05-20T05:53:11;16.10;73.00
913;DHT22;443;51.448;7.028;2023-05-20T05:55:38;16.10;74.20
913;DHT22;443;51.448;7.028;2023-05-20T05:58:06;16.10;73.30
913;DHT22;443;51.448;7.028;2023-05-20T06:00:33;16.10;73.20
913;DHT22;443;51.448;7.028;2023-05-20T06:02:59;16.10;74.50
913;DHT22;443;51.448;7.028;2023-05-20T06:05:26;16.10;74.20
913;DHT22;443;51.448;7.028;2023-05-20T06:07:53;16.10;74.00
913;DHT22;443;51.448;7.028;2023-05-20T06:10:20;16.10;73.90
913;DHT22;443;51.448;7.028;2023-05-20T06:12:46;16.10;73.80
913;DHT22;443;51.448;7.028;2023-05-20T06:15:14;16.10;72.90
913;DHT22;443;51.448;7.028;2023-05-20T06:17:41;16.10;73.90
913;DHT22;443;51.448;7.028;2023-05-20T06:20:09;16.10;74.00
913;DHT22;443;51.448;7.028;2023-05-20T06:22:35;16.10;73.80
913;DHT22;443;51.448;7.028;2023-05-20T06:25:03;16.10;73.80
913;DHT22;443;51.448;7.028;2023-05-20T06:27:30;16.10;73.80
913;DHT22;443;51.448;7.028;2023-05-20T06:29:57;16.20;74.00
913;DHT22;443;51.448;7.028;2023-05-20T06:32:25;16.20;74.20
913;DHT22;443;51.448;7.028;2023-05-20T06:34:52;16.20;74.30
913;DHT22;443;51.448;7.028;2023-05-20T06:37:19;16.20;74.10
913;DHT22;443;51.448;7.028;2023-05-20T06:39:48;16.20;74.20
913;DHT22;443;51.448;7.028;2023-05-20T06:42:18;16.20;74.10
913;DHT22;443;51.448;7.028;2023-05-20T06:44:45;16.20;74.50
913;DHT22;443;51.448;7.028;2023-05-20T06:47:13;16.20;74.40
913;DHT22;443;51.448;7.028;2023-05-20T06:49:41;16.20;74.20
913;DHT22;443;51.448;7.028;2023-05-20T06:52:08;16.20;73.60
913;DHT22;443;51.448;7.028;2023-05-20T06:54:36;16.20;74.00
913;DHT22;443;51.448;7.028;2023-05-20T06:57:06;16.20;74.40
913;DHT22;443;51.448;7.028;2023-05-20T06:59:33;16.20;74.50
913;DHT22;443;51.448;7.028;2023-05-20T07:01:59;16.20;74.40
913;DHT22;443;51.448;7.028;2023-05-20T07:04:26;16.20;74.20
913;DHT22;443;51.448;7.028;2023-05-20T07:06:54;16.20;74.20
913;DHT22;443;51.448;7.028;2023-05-20T07:09:21;16.20;73.90
913;DHT22;443;51.448;7.028;2023-05-20T07:11:48;16.20;74.00
913;DHT22;443;51.448;7.028;2023-05-20T07:14:15;16.20;73.80
913;DHT22;443;51.448;7.028;2023-05-20T07:16:41;16.30;74.20
913;DHT22;443;51.448;7.028;2023-05-20T07:19:08;16.30;73.90
913;DHT22;443;51.448;7.028;2023-05-20T07:21:35;16.30;74.10
913;DHT22;443;51.448;7.028;2023-05-20T07:24:03;16.30;73.40
913;DHT22;443;51.448;7.028;2023-05-20T07:26:30;16.30;74.30
913;DHT22;443;51.448;7.028;2023-05-20T07:28:58;16.30;74.30
913;DHT22;443;51.448;7.028;2023-05-20T07:31:26;16.30;74.20
913;DHT22;443;51.448;7.028;2023-05-20T07:33:53;16.30;74.10
913;DHT22;443;51.448;7.028;2023-05-20T07:36:19;16.30;74.00
913;DHT22;443;51.448;7.028;2023-05-20T07:38:46;16.30;74.30
913;DHT22;443;51.448;7.028;2023-05-20T07:41:14;16.30;73.70
913;DHT22;443;51.448;7.028;2023-05-20T07:43:41;16.30;74.20
913;DHT22;443;51.448;7.028;2023-05-20T07:46:08;16.30;74.00
913;DHT22;443;51.448;7.028;2023-05-20T07:48:35;16.30;73.80
913;DHT22;443;51.448;7.028;2023-05-20T07:51:01;16.30;73.80
913;DHT22;443;51.448;7.028;2023-05-20T07:53:28;16.30;73.80
913;DHT22;443;51.448;7.028;2023-05-20T07:55:55;16.30;73.70
913;DHT22;443;51.448;7.028;2023-05-20T07:58:23;16.30;74.20
913;DHT22;443;51.448;7.028;2023-05-20T08:00:50;16.30;73.80
913;DHT22;443;51.448;7.028;2023-05-20T08:03:16;16.30;73.50
913;DHT22;443;51.448;7.028;2023-05-20T08:05:44;16.30;74.20
913;DHT22;443;51.448;7.028;2023-05-20T08:08:10;16.30;73.50
913;DHT22;443;51.448;7.028;2023-05-20T08:10:37;16.30;73.80
913;DHT22;443;51.448;7.028;2023-05-20T08:13:04;16.30;73.40
913;DHT22;443;51.448;7.028;2023-05-20T08:15:32;16.40;73.80
913;DHT22;443;51.448;7.028;2023-05-20T08:17:59;16.40;73.90
913;DHT22;443;51.448;7.028;2023-05-20T08:20:25;16.40;74.20
913;DHT22;443;51.448;7.028;2023-05-20T08:22:53;16.40;74.50
913;DHT22;443;51.448;7.028;2023-05-20T08:25:20;16.30;74.20
913;DHT22;443;51.448;7.028;2023-05-20T08:27:48;16.30;73.90
913;DHT22;443;51.448;7.028;2023-05-20T08:30:14;16.30;74.10
913;DHT22;443;51.448;7.028;2023-05-20T08:32:42;16.30;74.80
913;DHT22;443;51.448;7.028;2023-05-20T08:35:10;16.30;74.30
913;DHT22;443;51.448;7.028;2023-05-20T08:37:37;16.30;74.50
913;DHT22;443;51.448;7.028;2023-05-20T08:40:04;16.40;74.20
913;DHT22;443;51.448;7.028;2023-05-20T08:42:31;16.40;73.70
913;DHT22;443;51.448;7.028;2023-05-20T08:45:00;16.40;74.40
913;DHT22;443;51.448;7.028;2023-05-20T08:47:27;16.40;73.50
913;DHT22;443;51.448;7.028;2023-05-20T08:49:55;16.40;73.20
913;DHT22;443;51.448;7.028;2023-05-20T08:52:23;16.40;74.00
913;DHT22;443;51.448;7.028;2023-05-20T08:54:50;16.40;73.20
913;DHT22;443;51.448;7.028;2023-05-20T08:57:17;16.40;73.70
913;DHT22;443;51.448;7.028;2023-05-20T08:59:45;16.40;73.20
913;DHT22;443;51.448;7.028;2023-05-20T09:02:12;16.40;73.00
913;DHT22;443;51.448;7.028;2023-05-20T09:04:39;16.40;73.40
913;DHT22;443;51.448;7.028;2023-05-20T09:07:07;16.40;73.70
913;DHT22;443;51.448;7.028;2023-05-20T09:09:34;16.50;73.40
913;DHT22;443;51.448;7.028;2023-05-20T09:12:02;16.40;73.90
913;DHT22;443;51.448;7.028;2023-05-20T09:14:29;16.40;73.50
913;DHT22;443;51.448;7.028;2023-05-20T09:16:56;16.40;73.50
913;DHT22;443;51.448;7.028;2023-05-20T09:19:23;16.40;73.60
913;DHT22;443;51.448;7.028;2023-05-20T09:21:51;16.40;73.40
913;DHT22;443;51.448;7.028;2023-05-20T09:24:22;16.40;74.00
913;DHT22;443;51.448;7.028;2023-05-20T09:26:49;16.40;73.30
913;DHT22;443;51.448;7.028;2023-05-20T09:29:16;16.50;73.30
913;DHT22;443;51.448;7.028;2023-05-20T09:31:44;16.50;74.00
913;DHT22;443;51.448;7.028;2023-05-20T09:34:11;16.40;73.40
913;DHT22;443;51.448;7.028;2023-05-20T09:36:39;16.40;73.60
913;DHT22;443;51.448;7.028;2023-05-20T09:39:08;16.40;73.80
913;DHT22;443;51.448;7.028;2023-05-20T09:41:54;16.50;73.30
913;DHT22;443;51.448;7.028;2023-05-20T09:44:21;16.50;73.90
913;DHT22;443;51.448;7.028;2023-05-20T09:46:49;16.50;73.30
913;DHT22;443;51.448;7.028;2023-05-20T09:49:18;16.50;73.90
913;DHT22;443;51.448;7.028;2023-05-20T09:51:47;16.50;73.50
913;DHT22;443;51.448;7.028;2023-05-20T09:54:14;16.50;73.70
913;DHT22;443;51.448;7.028;2023-05-20T09:56:45;16.50;73.70
913;DHT22;443;51.448;7.028;2023-05-20T09:59:14;16.50;73.10
913;DHT22;443;51.448;7.028;2023-05-20T10:01:41;16.50;73.60
913;DHT22;443;51.448;7.028;2023-05-20T10:04:08;16.50;73.50
913;DHT22;443;51.448;7.028;2023-05-20T10:06:48;16.50;73.50
913;DHT22;443;51.448;7.028;2023-05-20T10:09:36;16.50;73.20
913;DHT22;443;51.448;7.028;2023-05-20T10:12:19;16.50;73.50
913;DHT22;443;51.448;7.028;2023-05-20T10:14:56;16.50;73.50
913;DHT22;443;51.448;7.028;2023-05-20T10:17:34;16.50;73.50
913;DHT22;443;51.448;7.028;2023-05-20T10:20:06;16.50;73.50
913;DHT22;443;51.448;7.028;2023-05-20T10:22:33;16.50;73.20
913;DHT22;443;51.448;7.028;2023-05-20T10:25:04;16.50;73.20
913;DHT22;443;51.448;7.028;2023-05-20T10:27:43;16.50;74.50
913;DHT22;443;51.448;7.028;2023-05-20T10:30:17;16.50;73.60
913;DHT22;443;51.448;7.028;2023-05-20T10:32:52;16.50;73.60
913;DHT22;443;51.448;7.028;2023-05-20T10:35:22;16.50;73.70
913;DHT22;443;51.448;7.028;2023-05-20T10:37:51;16.50;73.40
913;DHT22;443;51.448;7.028;2023-05-20T10:40:20;16.50;73.40
913;DHT22;443;51.448;7.028;2023-05-20T10:42:48;16.50;73.30
913;DHT22;443;51.448;7.028;2023-05-20T10:45:25;16.50;73.60
913;DHT22;443;51.448;7.028;2023-05-20T10:47:55;16.50;73.60
913;DHT22;443;51.448;7.028;2023-05-20T10:50:26;16.50;73.50
913;DHT22;443;51.448;7.028;2023-05-20T10:52:54;16.50;73.80
913;DHT22;443;51.448;7.028;2023-05-20T10:55:22;16.50;73.70
913;DHT22;443;51.448;7.028;2023-05-20T10:57:50;16.50;73.70
913;DHT22;443;51.448;7.028;2023-05-20T11:00:17;16.50;73.90
913;DHT22;443;51.448;7.028;2023-05-20T11:02:45;16.50;73.90
913;DHT22;443;51.448;7.028;2023-05-20T11:05:12;16.50;73.70
913;DHT22;443;51.448;7.028;2023-05-20T11:07:42;16.50;73.70
913;DHT22;443;51.448;7.028;2023-05-20T11:10:09;16.50;73.60
913;DHT22;443;51.448;7.028;2023-05-20T11:12:36;16.50;73.80
913;DHT22;443;51.448;7.028;2023-05-20T11:15:05;16.50;73.60
913;DHT22;443;51.448;7.028;2023-05-20T11:17:32;16.50;73.80
913;DHT22;443;51.448;7.028;2023-05-20T11:19:59;16.50;73.80
913;DHT22;443;51.448;7.028;2023-05-20T11:22:26;16.50;73.80
913;DHT22;443;51.448;7.028;2023-05-20T11:24:53;16.50;73.50
913;DHT22;443;51.448;7.028;2023-05-20T11:27:20;16.50;73.60
913;DHT22;443;51.448;7.028;2023-05-20T11:29:49;16.50;73.20
913;DHT22;443;51.448;7.028;2023-05-20T11:32:19;16.60;73.40
913;DHT22;443;51.448;7.028;2023-05-20T11:34:50;16.60;73.50
913;DHT22;443;51.448;7.028;2023-05-20T11:37:18;16.60;73.60
913;DHT22;443;51.448;7.028;2023-05-20T11:39:46;16.60;73.50
913;DHT22;443;51.448;7.028;2023-05-20T11:42:13;16.60;73.40
913;DHT22;443;51.448;7.028;2023-05-20T11:44:42;16.50;73.90
913;DHT22;443;51.448;7.028;2023-05-20T11:47:09;16.60;73.70
913;DHT22;443;51.448;7.028;2023-05-20T11:49:39;16.60;73.60
913;DHT22;443;51.448;7.028;2023-05-20T11:52:08;16.60;74.20
913;DHT22;443;51.448;7.028;2023-05-20T11:54:35;16.50;74.10
913;DHT22;443;51.448;7.028;2023-05-20T11:57:02;16.50;74.40
913;DHT22;443;51.448;7.028;2023-05-20T11:59:28;16.50;74.60
913;DHT22;443;51.448;7.028;2023-05-20T12:01:55;16.50;74.20
913;DHT22;443;51.448;7.028;2023-05-20T12:04:22;16.50;74.20
913;DHT22;443;51.448;7.028;2023-05-20T12:06:50;16.50;74.30
913;DHT22;443;51.448;7.028;2023-05-20T12:09:17;16.50;74.40
913;DHT22;443;51.448;7.028;2023-05-20T12:11:44;16.50;74.10
913;DHT22;443;51.448;7.028;2023-05-20T12:14:11;16.50;74.80
913;DHT22;443;51.448;7.028;2023-05-20T12:16:38;16.50;74.40
913;DHT22;443;51.448;7.028;2023-05-20T12:19:05;16.50;73.90
913;DHT22;443;51.448;7.028;2023-05-20T12:21:33;16.50;73.50
913;DHT22;443;51.448;7.028;2023-05-20T12:24:01;16.60;73.50
913;DHT22;443;51.448;7.028;2023-05-20T12:26:30;16.60;73.90
913;DHT22;443;51.448;7.028;2023-05-20T12:28:57;16.60;74.20
913;DHT22;443;51.448;7.028;2023-05-20T12:31:24;16.60;74.00
913;DHT22;443;51.448;7.028;2023-05-20T12:33:51;16.60;74.00
913;DHT22;443;51.448;7.028;2023-05-20T12:36:18;16.60;73.80
913;DHT22;443;51.448;7.028;2023-05-20T12:38:44;16.60;73.90
913;DHT22;443;51.448;7.028;2023-05-20T12:41:13;16.60;74.20
913;DHT22;443;51.448;7.028;2023-05-20T12:43:39;16.60;73.60
913;DHT22;443;51.448;7.028;2023-05-20T12:46:06;16.60;74.40
913;DHT22;443;51.448;7.028;2023-05-20T12:48:33;16.50;74.50
913;DHT22;443;51.448;7.028;2023-05-20T12:51:01;16.60;73.90
913;DHT22;443;51.448;7.028;2023-05-20T12:53:27;16.60;73.90
913;DHT22;443;51.448;7.028;2023-05-20T12:55:54;16.60;73.30
913;DHT22;443;51.448;7.028;2023-05-20T12:58:22;16.60;74.10
913;DHT22;443;51.448;7.028;2023-05-20T13:00:49;16.60;75.00
913;DHT22;443;51.448;7.028;2023-05-20T13:03:16;16.60;73.90
913;DHT22;443;51.448;7.028;2023-05-20T13:05:43;16.70;73.60
913;DHT22;443;51.448;7.028;2023-05-20T13:08:10;16.70;73.90
913;DHT22;443;51.448;7.028;2023-05-20T13:10:39;16.60;74.30
913;DHT22;443;51.448;7.028;2023-05-20T13:13:06;16.60;74.30
913;DHT22;443;51.448;7.028;2023-05-20T13:15:34;16.50;74.60
913;DHT22;443;51.448;7.028;2023-05-20T13:18:01;16.60;74.20
913;DHT22;443;51.448;7.028;2023-05-20T13:20:30;16.60;74.40
913;DHT22;443;51.448;7.028;2023-05-20T13:22:57;16.50;74.60
913;DHT22;443;51.448;7.028;2023-05-20T13:25:23;16.50;74.40
913;DHT22;443;51.448;7.028;2023-05-20T13:27:50;16.60;74.20
913;DHT22;443;51.448;7.028;2023-05-20T13:30:17;16.60;73.70
913;DHT22;443;51.448;7.028;2023-05-20T13:32:45;16.60;73.60
913;DHT22;443;51.448;7.028;2023-05-20T13:35:12;16.60;73.80
913;DHT22;443;51.448;7.028;2023-05-20T13:37:41;16.60;73.50
913;DHT22;443;51.448;7.028;2023-05-20T13:40:08;16.60;73.30
913;DHT22;443;51.448;7.028;2023-05-20T13:42:35;16.60;73.70
913;DHT22;443;51.448;7.028;2023-05-20T13:45:03;16.60;73.70
913;DHT22;443;51.448;7.028;2023-05-20T13:47:30;16.70;73.40
913;DHT22;443;51.448;7.028;2023-05-20T13:49:58;16.70;73.20
913;DHT22;443;51.448;7.028;2023-05-20T13:52:25;16.70;73.50
913;DHT22;443;51.448;7.028;2023-05-20T13:54:52;16.60;74.10
913;DHT22;443;51.448;7.028;2023-05-20T13:57:18;16.60;74.00
913;DHT22;443;51.448;7.028;2023-05-20T13:59:45;16.60;73.60
913;DHT22;443;51.448;7.028;2023-05-20T14:02:12;16.70;73.50
913;DHT22;443;51.448;7.028;2023-05-20T14:04:39;16.70;73.40
913;DHT22;443;51.448;7.028;2023-05-20T14:07:10;16.70;73.20
913;DHT22;443;51.448;7.028;2023-05-20T14:09:37;16.70;73.30
913;DHT22;443;51.448;7.028;2023-05-20T14:12:04;16.70;73.50
913;DHT22;443;51.448;7.028;2023-05-20T14:14:31;16.70;74.10
913;DHT22;443;51.448;7.028;2023-05-20T14:16:58;16.70;73.80
913;DHT22;443;51.448;7.028;2023-05-20T14:19:25;16.80;73.30
913;DHT22;443;51.448;7.028;2023-05-20T14:21:52;16.90;72.90
913;DHT22;443;51.448;7.028;2023-05-20T14:24:20;16.90;72.50
913;DHT22;443;51.448;7.028;2023-05-20T14:26:46;16.90;73.30
913;DHT22;443;51.448;7.028;2023-05-20T14:29:13;16.80;73.60
913;DHT22;443;51.448;7.028;2023-05-20T14:31:40;16.80;73.10
913;DHT22;443;51.448;7.028;2023-05-20T14:34:07;16.90;73.30
913;DHT22;443;51.448;7.028;2023-05-20T14:36:33;16.90;73.40
913;DHT22;443;51.448;7.028;2023-05-20T14:39:00;16.90;73.60
913;DHT22;443;51.448;7.028;2023-05-20T14:41:28;16.90;72.80
913;DHT22;443;51.448;7.028;2023-05-20T14:43:55;17.00;72.60
913;DHT22;443;51.448;7.028;2023-05-20T14:46:22;17.10;72.40
913;DHT22;443;51.448;7.028;2023-05-20T14:48:49;17.20;72.60
913;DHT22;443;51.448;7.028;2023-05-20T14:51:16;17.40;71.60
913;DHT22;443;51.448;7.028;2023-05-20T14:53:43;17.40;71.20
913;DHT22;443;51.448;7.028;2023-05-20T14:56:10;17.30;71.80
913;DHT22;443;51.448;7.028;2023-05-20T14:58:38;17.20;71.90
913;DHT22;443;51.448;7.028;2023-05-20T15:01:05;17.20;72.40
913;DHT22;443;51.448;7.028;2023-05-20T15:03:32;17.10;72.00
913;DHT22;443;51.448;7.028;2023-05-20T15:05:59;17.10;72.30
913;DHT22;443;51.448;7.028;2023-05-20T15:08:25;17.00;72.00
913;DHT22;443;51.448;7.028;2023-05-20T15:10:52;17.00;72.20
913;DHT22;443;51.448;7.028;2023-05-20T15:13:19;17.00;73.00
913;DHT22;443;51.448;7.028;2023-05-20T15:15:47;17.00;72.90
913;DHT22;443;51.448;7.028;2023-05-20T15:18:14;17.00;73.00
913;DHT22;443;51.448;7.028;2023-05-20T15:20:41;16.90;73.00
913;DHT22;443;51.448;7.028;2023-05-20T15:23:07;17.00;72.30
913;DHT22;443;51.448;7.028;2023-05-20T15:25:34;17.00;71.50
913;DHT22;443;51.448;7.028;2023-05-20T15:28:01;17.10;71.50
913;DHT22;443;51.448;7.028;2023-05-20T15:30:28;17.10;70.90
913;DHT22;443;51.448;7.028;2023-05-20T15:32:56;17.10;70.60
913;DHT22;443;51.448;7.028;2023-05-20T15:35:23;17.20;70.70
913;DHT22;443;51.448;7.028;2023-05-20T15:37:49;17.10;71.30
913;DHT22;443;51.448;7.028;2023-05-20T15:40:16;17.10;71.40
913;DHT22;443;51.448;7.028;2023-05-20T15:42:43;17.00;71.50
913;DHT22;443;51.448;7.028;2023-05-20T15:45:10;17.00;71.90
913;DHT22;443;51.448;7.028;2023-05-20T15:47:37;16.90;71.90
913;DHT22;443;51.448;7.028;2023-05-20T15:50:06;16.90;72.50
913;DHT22;443;51.448;7.028;2023-05-20T15:52:36;16.90;72.60
913;DHT22;443;51.448;7.028;2023-05-20T15:55:03;16.80;72.20
913;DHT22;443;51.448;7.028;2023-05-20T15:57:30;16.90;72.20
913;DHT22;443;51.448;7.028;2023-05-20T15:59:56;16.90;72.90
913;DHT22;443;51.448;7.028;2023-05-20T16:02:23;16.80;73.10
913;DHT22;443;51.448;7.028;2023-05-20T16:04:50;16.80;72.90
913;DHT22;443;51.448;7.028;2023-05-20T16:07:19;16.80;72.60
913;DHT22;443;51.448;7.028;2023-05-20T16:09:45;16.80;72.80
913;DHT22;443;51.448;7.028;2023-05-20T16:12:12;16.80;73.10
913;DHT22;443;51.448;7.028;2023-05-20T16:14:40;16.80;73.20
913;DHT22;443;51.448;7.028;2023-05-20T16:17:08;16.80;73.20
913;DHT22;443;51.448;7.028;2023-05-20T16:19:35;16.80;73.50
913;DHT22;443;51.448;7.028;2023-05-20T16:22:02;16.80;73.30
913;DHT22;443;51.448;7.028;2023-05-20T16:24:30;16.80;73.20
913;DHT22;443;51.448;7.028;2023-05-20T16:26:57;16.70;73.50
913;DHT22;443;51.448;7.028;2023-05-20T16:29:24;16.70;73.70
913;DHT22;443;51.448;7.028;2023-05-20T16:31:50;16.70;74.20
913;DHT22;443;51.448;7.028;2023-05-20T16:34:17;16.70;73.50
913;DHT22;443;51.448;7.028;2023-05-20T16:36:44;16.70;73.60